Terminal Aerodrome Forecast
Issued by NWS Blacksburg, VA

Current Version | Previous Version | Graphics & Text | Print | Product List | Glossary On
Versions: 1 2 3 4 5 6 7 8 9 10 11 12 13 14 15 16 17 18 19 20 21 22 23 24 25 26 27 28 29 30 31 32 33 34 35 36 37 38
000
FTUS41 KRNK 281739
TAFBLF
TAF
KBLF 281739Z 2818/2918 31006KT P6SM SCT035
     FM290100 VRB03KT P6SM SKC
     FM290900 13003KT 3SM BR SCT003
      TEMPO 2910/2912 2SM BR BKN003
     FM291300 11005KT P6SM BKN015
     FM291500 15005KT P6SM SCT030=

USA.gov is the U.S. government's official web portal to all federal, state and local government web resources and services.